Time;durP1;ratioP1;P1;durP2;ratioP2;P2;SDS_P1;SDS_P2;PMS_P1;PMS_P2;Temp;Humidity;BMP_temperature;BMP_pressure;BME280_temperature;BME280_humidity;BME280_pressure;Samples;Min_cycle;Max_cycle;Signal;HPM_P1;HPM_P2
2021/10/27 00:00:09;;;;;;;6.88;3.72;;;;;;;12.51;64.77;99499.09;5135827;27;20011;-52
2021/10/27 00:02:35;;;;;;;4.72;3.63;;;;;;;12.37;64.96;99506.06;5117233;27;20062;-52
2021/10/27 00:05:01;;;;;;;8.27;3.90;;;;;;;12.23;65.25;99501.72;5135634;27;20103;-52
2021/10/27 00:07:27;;;;;;;8.73;3.33;;;;;;;12.11;65.30;99502.25;5135659;27;20105;-52
2021/10/27 00:09:52;;;;;;;5.80;3.80;;;;;;;11.98;65.48;99502.13;5135591;27;20015;-52
2021/10/27 00:12:18;;;;;;;8.48;3.95;;;;;;;11.85;66.05;99502.81;5135728;27;20043;-52
2021/10/27 00:14:44;;;;;;;10.57;4.57;;;;;;;11.75;65.99;99504.91;5135493;27;20090;-52
2021/10/27 00:17:10;;;;;;;7.22;4.38;;;;;;;11.60;66.38;99507.59;5116956;27;20023;-52
2021/10/27 00:19:36;;;;;;;6.63;3.92;;;;;;;11.51;66.68;99508.69;5135357;27;20019;-52
2021/10/27 00:22:01;;;;;;;10.80;4.50;;;;;;;11.46;67.08;99509.28;5135409;27;20553;-52
2021/10/27 00:24:27;;;;;;;12.68;7.05;;;;;;;11.39;66.80;99513.66;5135079;27;20019;-52
2021/10/27 00:26:53;;;;;;;10.52;6.05;;;;;;;11.33;66.63;99512.56;5134480;27;20099;-52
2021/10/27 00:29:19;;;;;;;11.90;7.05;;;;;;;11.27;66.80;99515.94;5135284;27;20054;-52
2021/10/27 00:31:45;;;;;;;7.90;5.30;;;;;;;11.25;66.87;99510.06;5116963;27;20445;-52
2021/10/27 00:34:11;;;;;;;8.50;5.13;;;;;;;11.29;67.23;99513.09;5135060;27;20055;-51
2021/10/27 00:36:37;;;;;;;8.25;4.60;;;;;;;11.37;67.25;99500.69;5135076;27;20027;-51
2021/10/27 00:39:03;;;;;;;6.10;4.30;;;;;;;11.45;66.95;99504.19;5135028;27;20557;-52
2021/10/27 00:41:29;;;;;;;9.80;6.80;;;;;;;11.49;66.29;99495.78;5134910;27;20030;-52
2021/10/27 00:43:55;;;;;;;6.43;5.13;;;;;;;11.46;66.40;99503.22;5134965;27;20420;-52
2021/10/27 00:46:23;;;;;;;9.15;5.50;;;;;;;11.52;66.50;99502.47;5134912;27;20015;-52
2021/10/27 00:48:50;;;;;;;12.23;6.75;;;;;;;11.54;66.14;99501.25;5134862;27;20054;-52
2021/10/27 00:51:16;;;;;;;15.50;7.07;;;;;;;11.57;66.23;99500.09;5116308;27;20019;-52
2021/10/27 00:53:54;;;;;;;10.73;7.15;;;;;;;11.49;65.48;99492.31;5134667;27;20559;-52
2021/10/27 00:56:19;;;;;;;9.20;6.75;;;;;;;11.31;65.46;99492.75;5134664;27;20107;-52
2021/10/27 00:58:45;;;;;;;8.85;6.30;;;;;;;11.24;66.12;99492.66;5134448;27;20520;-52
2021/10/27 01:01:11;;;;;;;6.25;5.15;;;;;;;11.27;66.54;99496.72;5134589;27;20098;-52
2021/10/27 01:03:36;;;;;;;8.80;5.70;;;;;;;11.37;67.08;99495.44;5116099;27;20083;-52
2021/10/27 01:06:05;;;;;;;8.90;6.00;;;;;;;11.52;66.98;99494.56;5134415;27;20039;-52
2021/10/27 01:08:32;;;;;;;11.63;6.18;;;;;;;11.59;66.26;99500.72;5134497;27;20479;-52
2021/10/27 01:10:57;;;;;;;8.93;6.20;;;;;;;11.60;65.52;99507.59;5134389;27;20448;-52
2021/10/27 01:13:23;;;;;;;14.38;5.57;;;;;;;11.56;65.39;99503.72;5115815;27;20106;-52
2021/10/27 01:15:49;;;;;;;10.18;6.78;;;;;;;11.51;65.21;99495.56;5134250;27;20023;-52
2021/10/27 01:18:14;;;;;;;8.75;5.60;;;;;;;11.44;65.02;99499.94;5115762;27;20055;-52
2021/10/27 01:20:40;;;;;;;13.30;6.55;;;;;;;11.40;65.69;99508.19;5115692;27;20035;-52
2021/10/27 01:23:06;;;;;;;10.13;6.22;;;;;;;11.50;65.76;99507.09;5134153;27;20062;-52
2021/10/27 01:25:31;;;;;;;15.80;7.07;;;;;;;11.60;65.22;99505.78;5115591;27;20234;-52
2021/10/27 01:28:00;;;;;;;13.98;6.22;;;;;;;11.63;65.00;99507.25;5134087;27;20030;-52
2021/10/27 01:30:26;;;;;;;10.65;5.47;;;;;;;11.63;64.92;99507.25;5133960;27;20030;-52
2021/10/27 01:32:52;;;;;;;7.97;6.15;;;;;;;11.62;64.71;99512.69;5133924;27;20027;-51
2021/10/27 01:35:18;;;;;;;9.15;5.47;;;;;;;11.57;65.08;99502.72;5133936;27;20024;-52
2021/10/27 01:37:45;;;;;;;9.88;6.18;;;;;;;11.53;65.33;99509.34;5133712;27;20126;-52
2021/10/27 01:40:15;;;;;;;11.18;5.38;;;;;;;11.50;65.52;99499.19;5115364;27;20019;-51
2021/10/27 01:42:41;;;;;;;11.45;6.40;;;;;;;11.50;65.34;99497.38;5115412;27;20389;-52
2021/10/27 01:45:09;;;;;;;11.63;6.63;;;;;;;11.55;65.22;99502.91;5133733;27;20055;-51
2021/10/27 01:47:35;;;;;;;12.52;7.00;;;;;;;11.55;65.38;99500.28;5115261;27;20062;-52
2021/10/27 01:50:01;;;;;;;7.80;4.80;;;;;;;11.56;65.16;99504.53;5115257;27;20039;-52
2021/10/27 01:52:27;;;;;;;12.32;6.43;;;;;;;11.55;65.18;99492.41;5133565;27;20025;-51
2021/10/27 01:54:53;;;;;;;13.68;6.93;;;;;;;11.58;65.27;99491.19;5133563;27;20263;-52
2021/10/27 01:57:19;;;;;;;11.80;6.82;;;;;;;11.58;65.64;99485.94;5133261;27;20035;-52
2021/10/27 01:59:44;;;;;;;10.35;5.70;;;;;;;11.66;65.79;99485.00;5133475;27;20542;-52
2021/10/27 02:02:10;;;;;;;11.27;7.57;;;;;;;11.73;66.03;99485.88;5133462;27;20025;-52
2021/10/27 02:04:36;;;;;;;8.75;5.65;;;;;;;11.91;66.28;99485.47;5133357;27;20492;-52
2021/10/27 02:07:02;;;;;;;11.82;5.95;;;;;;;12.08;65.50;99478.13;5133347;27;20093;-52
2021/10/27 02:09:29;;;;;;;11.50;5.68;;;;;;;12.08;65.36;99486.84;5133283;27;20149;-51
2021/10/27 02:11:55;;;;;;;11.52;6.53;;;;;;;12.09;65.57;99490.28;5133227;27;20067;-52
2021/10/27 02:14:24;;;;;;;13.73;6.72;;;;;;;12.12;66.02;99497.78;5133176;27;20022;-52
2021/10/27 02:16:50;;;;;;;13.02;6.22;;;;;;;12.16;65.88;99504.31;5114666;27;20038;-52
2021/10/27 02:19:16;;;;;;;9.32;6.47;;;;;;;12.19;66.17;99493.38;5133175;27;20491;-52
2021/10/27 02:21:42;;;;;;;8.00;6.25;;;;;;;12.22;65.91;99484.31;5114674;27;20513;-52
2021/10/27 02:24:08;;;;;;;9.18;7.45;;;;;;;12.29;66.24;99493.06;5114630;27;20115;-52
2021/10/27 02:26:34;;;;;;;11.73;7.40;;;;;;;12.51;66.49;99491.19;5133056;27;20035;-51
2021/10/27 02:28:59;;;;;;;19.20;7.43;;;;;;;12.67;65.89;99484.81;5133311;27;20144;-52
2021/10/27 02:31:25;;;;;;;10.95;7.30;;;;;;;12.65;65.92;99486.81;5132986;27;20487;-52
2021/10/27 02:33:52;;;;;;;7.95;6.35;;;;;;;12.58;65.71;99487.59;5132855;27;20019;-52
2021/10/27 02:36:17;;;;;;;9.13;7.50;;;;;;;12.48;65.87;99489.75;5132892;27;20034;-52
2021/10/27 02:38:43;;;;;;;13.48;7.65;;;;;;;12.44;66.23;99485.88;5132858;27;20023;-52
2021/10/27 02:41:11;;;;;;;12.70;7.85;;;;;;;12.42;66.23;99492.34;5132862;27;20369;-52
2021/10/27 02:43:36;;;;;;;9.73;7.47;;;;;;;12.39;66.21;99485.63;5132807;27;20030;-52
2021/10/27 02:46:03;;;;;;;15.90;7.75;;;;;;;12.12;66.84;99488.06;5132785;28;20098;-53
2021/10/27 02:48:29;;;;;;;9.15;7.55;;;;;;;12.07;67.07;99489.66;5113716;28;20027;-52
2021/10/27 02:50:54;;;;;;;10.65;6.57;;;;;;;12.13;67.85;99488.88;5132768;28;20571;-52
2021/10/27 02:53:20;;;;;;;11.68;9.38;;;;;;;12.31;67.31;99483.16;5114225;28;20028;-52
2021/10/27 02:55:46;;;;;;;14.82;7.78;;;;;;;12.43;66.87;99478.16;5132694;28;20030;-52
2021/10/27 02:58:12;;;;;;;13.57;7.10;;;;;;;12.56;66.76;99486.97;5132470;28;20067;-52
2021/10/27 03:00:37;;;;;;;12.68;7.68;;;;;;;12.68;66.37;99492.50;5132617;28;20097;-52
2021/10/27 03:03:03;;;;;;;9.68;6.25;;;;;;;12.85;66.11;99494.81;5132648;28;20019;-52
2021/10/27 03:05:30;;;;;;;9.82;5.53;;;;;;;12.96;65.82;99487.19;5132857;28;20027;-52
2021/10/27 03:07:55;;;;;;;10.60;6.80;;;;;;;13.06;65.11;99483.34;5132600;28;20019;-52
2021/10/27 03:10:21;;;;;;;8.30;5.75;;;;;;;13.06;64.97;99486.81;5132553;28;20114;-53
2021/10/27 03:12:47;;;;;;;10.40;6.57;;;;;;;13.03;64.71;99481.94;5132728;28;20019;-52
2021/10/27 03:15:13;;;;;;;8.52;5.95;;;;;;;12.97;64.99;99480.88;5114062;28;20030;-52
2021/10/27 03:17:39;;;;;;;14.32;6.25;;;;;;;12.94;64.75;99478.66;5132504;28;20051;-52
2021/10/27 03:20:05;;;;;;;8.63;6.05;;;;;;;12.94;64.96;99469.97;5132455;28;20027;-52
2021/10/27 03:22:31;;;;;;;15.68;7.25;;;;;;;12.76;65.20;99478.38;5113971;28;20515;-52
2021/10/27 03:24:57;;;;;;;13.88;7.28;;;;;;;12.71;65.47;99475.50;5132409;28;20102;-52
2021/10/27 03:27:23;;;;;;;12.55;6.10;;;;;;;12.66;65.58;99468.19;5132381;28;20098;-53
2021/10/27 03:29:48;;;;;;;14.00;5.72;;;;;;;12.83;65.42;99468.66;5132428;28;20023;-52
2021/10/27 03:32:14;;;;;;;8.82;6.13;;;;;;;13.02;64.85;99471.59;5132335;28;20492;-52
2021/10/27 03:34:40;;;;;;;11.18;7.10;;;;;;;12.97;64.73;99470.34;5132275;28;20023;-52
2021/10/27 03:37:07;;;;;;;9.60;6.53;;;;;;;12.95;64.65;99466.28;5132311;28;20488;-52
2021/10/27 03:39:33;;;;;;;15.20;7.25;;;;;;;13.14;64.68;99468.22;5132272;28;20020;-52
2021/10/27 03:41:59;;;;;;;12.50;6.28;;;;;;;13.30;63.88;99464.44;5113809;28;20095;-52
2021/10/27 03:44:24;;;;;;;12.05;6.80;;;;;;;13.35;63.70;99466.47;5132239;28;20541;-52
2021/10/27 03:46:51;;;;;;;11.52;6.90;;;;;;;13.23;63.41;99468.84;5113762;28;20392;-52
2021/10/27 03:49:18;;;;;;;10.77;6.53;;;;;;;13.04;64.20;99470.41;5132240;28;20411;-52
2021/10/27 03:51:45;;;;;;;16.00;7.72;;;;;;;12.98;64.41;99469.34;5132150;28;20030;-53
2021/10/27 03:54:10;;;;;;;14.68;7.85;;;;;;;12.95;63.93;99471.56;5132046;28;20027;-53
2021/10/27 03:56:36;;;;;;;9.68;6.70;;;;;;;12.63;64.61;99473.84;5132158;28;20090;-52
2021/10/27 03:59:02;;;;;;;13.45;6.70;;;;;;;12.59;65.57;99470.78;5131969;27;20400;-52
2021/10/27 04:01:28;;;;;;;12.18;6.72;;;;;;;12.61;65.09;99467.16;5134268;27;20478;-52
2021/10/27 04:03:53;;;;;;;13.23;7.68;;;;;;;12.54;65.15;99467.91;5117346;27;20019;-52
2021/10/27 04:06:19;;;;;;;10.90;7.28;;;;;;;12.45;65.49;99461.16;5135665;27;20396;-51
2021/10/27 04:08:45;;;;;;;17.92;8.52;;;;;;;12.30;65.50;99463.13;5135650;27;20046;-52
2021/10/27 04:11:10;;;;;;;14.48;8.23;;;;;;;12.04;66.34;99466.38;5135596;27;20015;-52
2021/10/27 04:13:37;;;;;;;27.23;8.18;;;;;;;12.01;67.05;99470.16;5135462;27;20502;-52
2021/10/27 04:16:03;;;;;;;11.85;7.45;;;;;;;12.25;66.96;99474.19;5135428;27;20027;-53
2021/10/27 04:18:29;;;;;;;16.00;7.85;;;;;;;12.45;66.55;99473.53;5135515;27;20023;-52
2021/10/27 04:20:55;;;;;;;13.48;8.35;;;;;;;12.53;65.73;99470.75;5135390;27;20484;-52
2021/10/27 04:23:21;;;;;;;21.52;8.60;;;;;;;12.47;65.59;99471.50;5135341;27;20016;-52
2021/10/27 04:25:47;;;;;;;19.75;7.95;;;;;;;12.41;65.84;99482.81;5135304;27;20022;-52
2021/10/27 04:28:12;;;;;;;17.98;7.95;;;;;;;12.36;65.85;99478.94;5135233;27;20027;-52
2021/10/27 04:30:38;;;;;;;23.70;8.77;;;;;;;12.29;65.83;99479.91;5135205;27;20424;-52
2021/10/27 04:33:13;;;;;;;17.70;7.88;;;;;;;12.30;66.49;99471.00;5135076;27;20023;-53
2021/10/27 04:35:38;;;;;;;13.45;7.63;;;;;;;12.24;66.20;99469.16;5135122;27;20031;-52
2021/10/27 04:38:04;;;;;;;13.57;8.23;;;;;;;12.31;66.37;99477.88;5135138;27;20030;-52
2021/10/27 04:40:30;;;;;;;12.27;6.90;;;;;;;12.53;66.62;99473.38;5135017;27;20027;-52
2021/10/27 04:42:56;;;;;;;14.75;8.13;;;;;;;12.68;65.99;99465.38;5134975;27;20031;-52
2021/10/27 04:45:22;;;;;;;12.35;9.15;;;;;;;12.61;65.74;99475.03;5134939;27;20219;-52
2021/10/27 04:47:48;;;;;;;15.38;7.85;;;;;;;12.62;65.81;99472.22;5134919;27;20071;-52
2021/10/27 04:50:14;;;;;;;24.80;8.75;;;;;;;12.59;65.57;99470.78;5134823;27;20023;-52
2021/10/27 04:52:39;;;;;;;17.88;7.97;;;;;;;12.65;65.25;99474.44;5134785;27;20396;-53
2021/10/27 04:55:05;;;;;;;49.22;8.63;;;;;;;12.76;65.24;99471.28;5134744;27;20019;-52
2021/10/27 04:57:31;;;;;;;24.88;8.80;;;;;;;12.83;65.19;99476.56;5134418;27;20042;-52
2021/10/27 04:59:57;;;;;;;30.00;8.85;;;;;;;12.99;65.21;99478.06;5116218;27;20023;-52
2021/10/27 05:02:22;;;;;;;21.67;8.15;;;;;;;13.15;65.03;99476.91;5134539;27;20027;-52
2021/10/27 05:04:48;;;;;;;15.00;7.05;;;;;;;13.29;64.06;99472.50;5134538;27;20019;-52
2021/10/27 05:07:15;;;;;;;18.92;8.20;;;;;;;13.37;63.96;99473.16;5115992;27;20050;-52
2021/10/27 05:09:42;;;;;;;16.55;8.30;;;;;;;13.26;63.36;99483.44;5134488;27;20055;-52
2021/10/27 05:12:09;;;;;;;11.57;7.40;;;;;;;13.03;63.54;99479.31;5133856;27;20499;-52
2021/10/27 05:14:36;;;;;;;42.15;10.75;;;;;;;12.76;64.18;99476.56;5134251;27;20016;-52
2021/10/27 05:17:06;;;;;;;13.05;7.40;;;;;;;12.55;64.58;99482.69;5134297;27;20027;-52
2021/10/27 05:19:31;;;;;;;10.50;7.65;;;;;;;12.35;64.93;99484.38;5134346;27;20034;-52
2021/10/27 05:21:57;;;;;;;32.42;9.57;;;;;;;12.21;65.77;99480.03;5115713;27;20019;-52
2021/10/27 05:24:23;;;;;;;51.28;10.35;;;;;;;12.24;66.22;99484.94;5134144;27;20023;-52
2021/10/27 05:26:48;;;;;;;25.88;9.15;;;;;;;12.28;66.05;99487.00;5115632;27;20040;-52
2021/10/27 05:29:14;;;;;;;30.88;9.80;;;;;;;12.21;65.88;99482.66;5134014;27;20442;-52
2021/10/27 05:31:40;;;;;;;13.25;9.15;;;;;;;12.07;65.58;99479.94;5134001;27;20023;-52
2021/10/27 05:34:05;;;;;;;12.35;7.85;;;;;;;11.95;66.51;99491.97;5115429;27;20059;-53
2021/10/27 05:36:31;;;;;;;12.95;9.52;;;;;;;11.81;66.15;99485.75;5133812;27;20072;-52
2021/10/27 05:38:57;;;;;;;13.25;8.60;;;;;;;11.70;66.88;99481.81;5115401;27;20480;-52
2021/10/27 05:41:23;;;;;;;24.08;9.52;;;;;;;11.73;66.83;99483.25;5115360;27;20057;-52
2021/10/27 05:43:49;;;;;;;20.35;9.10;;;;;;;11.89;67.08;99490.09;5133798;27;20016;-52
2021/10/27 05:46:17;;;;;;;21.35;9.57;;;;;;;12.13;67.11;99499.41;5133725;27;20057;-52
2021/10/27 05:48:46;;;;;;;22.23;10.48;;;;;;;12.27;66.09;99495.88;5133743;27;20110;-52
2021/10/27 05:51:18;;;;;;;12.05;8.68;;;;;;;12.30;65.87;99492.06;5133653;27;20488;-53
2021/10/27 05:56:28;;;;;;;40.75;10.23;;;;;;;12.47;66.11;99490.75;5133601;27;20053;-53
2021/10/27 05:58:53;;;;;;;28.70;9.82;;;;;;;12.65;65.80;99495.53;5133339;27;20492;-52
2021/10/27 06:01:19;;;;;;;21.40;9.18;;;;;;;12.79;64.89;99489.31;5114935;27;20027;-52
2021/10/27 06:03:45;;;;;;;19.70;8.93;;;;;;;12.84;64.93;99493.19;5133449;27;20369;-53
2021/10/27 06:06:13;;;;;;;18.67;8.68;;;;;;;12.91;64.84;99486.94;5133354;27;20016;-52
2021/10/27 06:08:39;;;;;;;11.45;8.27;;;;;;;12.97;64.33;99490.63;5133384;27;20499;-52
2021/10/27 06:11:10;;;;;;;37.97;10.98;;;;;;;12.96;64.09;99495.09;5114872;27;20019;-52
2021/10/27 06:13:44;;;;;;;13.32;9.27;;;;;;;12.99;64.55;99493.88;5133219;27;20031;-52
2021/10/27 06:16:09;;;;;;;27.75;8.45;;;;;;;12.92;64.28;99493.06;5133240;27;20020;-52
2021/10/27 06:18:35;;;;;;;22.65;9.07;;;;;;;12.90;64.90;99495.06;5133190;27;20103;-52
2021/10/27 06:21:01;;;;;;;28.30;12.82;;;;;;;13.01;64.53;99493.69;5114706;27;20110;-52
2021/10/27 06:23:26;;;;;;;25.10;10.15;;;;;;;13.11;64.12;99491.50;5113773;27;20500;-52
2021/10/27 06:25:52;;;;;;;25.80;10.45;;;;;;;13.15;64.04;99496.16;5133014;27;20035;-52
2021/10/27 06:28:24;;;;;;;19.35;10.57;;;;;;;13.18;64.04;99497.63;5133058;27;20065;-52
2021/10/27 06:31:06;;;;;;;26.40;10.43;;;;;;;13.22;63.77;99498.84;5133075;27;20027;-52
2021/10/27 06:36:19;;;;;;;28.63;10.85;;;;;;;13.33;63.54;99506.22;5132968;27;20445;-52
2021/10/27 06:46:39;;;;;;;51.13;13.13;;;;;;;13.79;62.37;99512.63;5117562;28;20023;-53
2021/10/27 06:49:05;;;;;;;29.52;9.90;;;;;;;13.79;62.08;99513.41;5114380;28;20023;-52
2021/10/27 06:51:32;;;;;;;53.80;11.00;;;;;;;13.80;62.07;99522.13;5132804;28;20035;-52
2021/10/27 06:53:57;;;;;;;27.13;10.20;;;;;;;13.80;62.09;99514.22;5132674;28;20072;-52
2021/10/27 06:56:24;;;;;;;31.77;11.57;;;;;;;13.77;61.91;99520.72;5114232;28;20023;-52
2021/10/27 06:58:57;;;;;;;21.30;10.50;;;;;;;13.75;61.70;99520.09;5132454;28;20035;-52
2021/10/27 07:02:29;;;;;;;21.23;10.70;;;;;;;13.50;61.82;99526.94;5132750;28;20028;-52
2021/10/27 07:04:35;;;;;;;21.25;11.25;;;;;;;13.06;62.35;99526.34;5117988;28;20039;-52
2021/10/27 07:14:58;;;;;;;17.92;11.48;;;;;;;12.71;63.31;99536.06;5132596;28;20035;-52
2021/10/27 07:15:35;;;;;;;20.75;11.70;;;;;;;12.27;65.06;99542.44;5133179;28;20080;-52
2021/10/27 07:18:02;;;;;;;13.57;10.95;;;;;;;12.30;65.36;99547.34;5132481;28;20030;-52
2021/10/27 07:20:29;;;;;;;20.38;12.32;;;;;;;12.42;65.08;99550.28;5132469;28;20068;-52
2021/10/27 07:23:00;;;;;;;18.45;12.50;;;;;;;12.42;65.01;99545.81;5132470;28;20054;-52
2021/10/27 07:25:27;;;;;;;20.08;12.43;;;;;;;12.41;64.81;99549.44;5132468;28;20381;-52
2021/10/27 07:27:52;;;;;;;17.33;11.55;;;;;;;12.39;64.87;99546.19;5132427;28;20398;-52
2021/10/27 07:30:18;;;;;;;18.85;11.40;;;;;;;12.39;65.42;99549.66;5132337;28;20023;-51
2021/10/27 07:32:45;;;;;;;21.85;12.25;;;;;;;12.48;65.53;99547.69;5132306;28;20032;-52
2021/10/27 07:40:35;;;;;;;24.75;12.27;;;;;;;12.61;65.10;99548.78;5136318;27;20054;-52
2021/10/27 07:43:11;;;;;;;19.80;11.77;;;;;;;12.54;64.88;99561.91;5117698;27;20035;-51
2021/10/27 07:45:38;;;;;;;19.55;12.65;;;;;;;12.48;65.03;99545.03;5136198;27;20211;-52
2021/10/27 07:48:05;;;;;;;33.25;13.50;;;;;;;12.49;65.20;99559.00;5117542;27;20121;-52
2021/10/27 07:50:32;;;;;;;14.85;11.13;;;;;;;12.53;65.17;99553.16;5117560;27;20019;-52
2021/10/27 07:52:58;;;;;;;15.82;11.77;;;;;;;12.51;65.18;99547.28;5134529;27;20069;-52
2021/10/27 07:55:24;;;;;;;15.77;11.70;;;;;;;12.53;64.96;99553.16;5135959;27;20022;-51
2021/10/27 07:57:50;;;;;;;16.83;10.93;;;;;;;12.60;65.58;99555.88;5135667;27;20035;-52
2021/10/27 08:00:17;;;;;;;12.70;10.75;;;;;;;12.70;64.60;99553.72;5135758;27;20027;-52
2021/10/27 08:02:52;;;;;;;16.73;11.65;;;;;;;12.71;64.90;99554.50;5117627;27;20400;-52
2021/10/27 08:05:19;;;;;;;15.80;10.77;;;;;;;12.76;64.69;99557.41;5135750;27;20026;-52
2021/10/27 08:07:50;;;;;;;17.55;10.80;;;;;;;12.82;64.72;99561.91;5135698;27;20023;-52
2021/10/27 08:10:18;;;;;;;17.10;10.55;;;;;;;12.84;64.07;99556.41;5117122;27;20027;-52
2021/10/27 08:12:46;;;;;;;17.00;11.32;;;;;;;12.73;64.49;99558.56;5135534;27;20023;-52
2021/10/27 08:15:13;;;;;;;21.40;12.50;;;;;;;12.59;64.54;99556.84;5135817;27;20548;-52
2021/10/27 08:17:40;;;;;;;14.32;11.13;;;;;;;12.37;65.48;99564.81;5135538;27;20026;-52
2021/10/27 08:20:08;;;;;;;17.83;11.57;;;;;;;12.33;65.93;99568.00;5135446;27;20034;-52
2021/10/27 08:22:35;;;;;;;16.60;10.90;;;;;;;12.49;65.77;99562.44;5116998;27;20106;-52
2021/10/27 08:25:05;;;;;;;18.52;11.13;;;;;;;12.64;65.23;99564.22;5135325;27;20433;-52
2021/10/27 08:27:35;;;;;;;14.77;10.45;;;;;;;12.73;64.75;99568.31;5135379;27;20060;-52
2021/10/27 08:30:09;;;;;;;13.75;10.73;;;;;;;12.83;64.65;99570.59;5135297;27;20027;-52
2021/10/27 08:32:47;;;;;;;13.77;9.93;;;;;;;12.91;64.56;99567.81;5135201;27;20064;-52
2021/10/27 08:35:14;;;;;;;15.25;9.93;;;;;;;13.06;63.90;99567.69;5135199;27;20023;-52
2021/10/27 08:37:49;;;;;;;22.33;10.75;;;;;;;12.99;63.79;99568.47;5116681;27;20361;-53
2021/10/27 08:40:17;;;;;;;16.83;10.20;;;;;;;12.93;64.00;99568.44;5116648;27;20084;-53
2021/10/27 08:42:44;;;;;;;12.95;9.77;;;;;;;13.09;64.05;99556.78;5135028;27;20500;-52
2021/10/27 08:45:11;;;;;;;18.85;10.00;;;;;;;13.27;63.67;99572.88;5116573;27;20023;-52
2021/10/27 08:47:39;;;;;;;12.35;9.43;;;;;;;13.49;63.25;99568.31;5134084;27;20426;-52
2021/10/27 08:50:07;;;;;;;12.88;9.80;;;;;;;13.61;62.31;99565.94;5134841;27;20020;-52
2021/10/27 08:52:33;;;;;;;19.95;10.45;;;;;;;13.71;62.37;99561.09;5134757;27;20023;-52
2021/10/27 08:54:59;;;;;;;12.18;8.63;;;;;;;13.86;62.22;99554.84;5116302;27;20084;-52
2021/10/27 08:57:25;;;;;;;14.70;10.20;;;;;;;13.91;61.47;99558.50;5134410;27;20043;-52
2021/10/27 09:00:00;;;;;;;13.77;9.85;;;;;;;13.79;61.33;99566.19;5134671;27;20098;-51
2021/10/27 09:44:20;;;;;;;19.65;10.82;;;;;;;13.82;61.23;99561.53;5133850;27;20035;-51
2021/10/27 10:05:35;;;;;;;14.43;10.43;;;;;;;14.20;60.19;99548.56;5133727;27;20075;-52
2021/10/27 10:08:00;;;;;;;14.98;9.82;;;;;;;14.34;59.99;99546.75;5114896;27;20024;-52
2021/10/27 10:10:26;;;;;;;13.93;10.75;;;;;;;14.52;59.69;99541.66;5133285;27;20023;-52
2021/10/27 10:12:53;;;;;;;21.17;10.70;;;;;;;14.56;59.39;99545.56;5133190;27;20027;-52
2021/10/27 10:15:22;;;;;;;26.35;11.15;;;;;;;14.77;59.70;99543.72;5133212;27;20026;-52
2021/10/27 10:17:51;;;;;;;17.90;10.25;;;;;;;15.19;58.80;99546.81;5114728;27;20033;-51
2021/10/27 10:20:19;;;;;;;16.30;11.00;;;;;;;15.51;57.69;99544.25;5114714;27;20023;-51
2021/10/27 10:22:45;;;;;;;15.95;10.82;;;;;;;15.60;57.02;99548.28;5114628;27;20574;-52
2021/10/27 10:25:14;;;;;;;15.82;9.90;;;;;;;15.63;56.83;99539.13;5133138;27;20054;-51
2021/10/27 10:27:42;;;;;;;15.68;10.00;;;;;;;16.00;56.43;99536.66;5133129;27;20416;-51
2021/10/27 10:30:28;;;;;;;15.45;11.75;;;;;;;16.55;55.49;99535.00;5133022;27;20373;-51
2021/10/27 10:33:09;;;;;;;17.13;11.13;;;;;;;16.64;54.56;99543.50;5114416;27;20023;-52
2021/10/27 10:36:30;;;;;;;16.80;10.70;;;;;;;16.78;54.24;99537.03;5114475;27;20391;-52
2021/10/27 11:23:15;;;;;;;14.13;10.77;;;;;;;20.01;45.41;99473.72;5053579;28;20130;-50
2021/10/27 11:25:55;;;;;;;14.10;11.20;;;;;;;19.71;46.10;99470.28;5053152;28;20041;-50
2021/10/27 11:37:19;;;;;;;17.63;11.15;;;;;;;19.41;46.34;99465.22;5038548;28;20618;-50
2021/10/27 11:38:08;;;;;;;13.43;10.85;;;;;;;19.09;46.81;99447.06;5053246;28;20074;-49
2021/10/27 11:40:28;;;;;;;15.77;12.07;;;;;;;18.47;47.64;99452.16;5047389;28;20041;-50
2021/10/27 11:43:04;;;;;;;17.75;11.25;;;;;;;18.13;49.02;99450.13;5052808;28;20483;-50
2021/10/27 11:48:08;;;;;;;19.50;11.70;;;;;;;18.68;48.42;99438.25;5052775;28;20437;-49
2021/10/27 11:50:37;;;;;;;14.88;12.18;;;;;;;19.40;47.17;99429.00;5109533;27;20456;-50
2021/10/27 11:53:07;;;;;;;15.40;10.85;;;;;;;19.93;46.55;99424.31;5117487;27;20403;-50
2021/10/27 11:55:37;;;;;;;14.07;11.05;;;;;;;20.99;44.93;99417.97;5135944;27;20046;-50
2021/10/27 11:58:04;;;;;;;13.10;11.40;;;;;;;21.85;42.69;99411.00;5135721;27;20043;-50
2021/10/27 12:03:09;;;;;;;22.23;11.73;;;;;;;22.76;40.58;99399.22;5136122;27;20499;-50
2021/10/27 12:05:43;;;;;;;43.20;12.07;;;;;;;23.25;39.82;99398.78;5135998;27;20081;-50
2021/10/27 12:19:07;;;;;;;994.80;74.03;;;;;;;23.85;37.46;99392.94;5104750;27;20102;-50
2021/10/27 12:21:35;;;;;;;338.17;28.05;;;;;;;22.60;38.87;99395.66;5134170;27;20034;-50
2021/10/27 12:24:04;;;;;;;320.42;24.70;;;;;;;21.88;40.39;99394.47;5135341;27;20508;-49
2021/10/27 12:26:56;;;;;;;404.75;34.42;;;;;;;21.91;40.65;99389.41;5135311;27;20503;-50
2021/10/27 12:29:26;;;;;;;68.35;14.52;;;;;;;21.67;41.08;99382.81;5118075;27;20023;-51
2021/10/27 12:32:25;;;;;;;66.47;14.27;;;;;;;21.50;41.75;99386.44;5135190;27;20496;-50
2021/10/27 12:34:54;;;;;;;57.53;13.68;;;;;;;21.92;41.04;99380.31;5090381;27;20042;-50
2021/10/27 12:37:40;;;;;;;45.35;13.38;;;;;;;21.76;41.13;99380.47;5100023;27;20072;-50
2021/10/27 12:40:37;;;;;;;37.35;12.40;;;;;;;22.12;40.40;99368.16;5135025;27;20038;-50
2021/10/27 12:43:12;;;;;;;166.98;20.20;;;;;;;21.81;40.97;99367.97;5134220;27;20518;-49
2021/10/27 12:45:41;;;;;;;19.70;11.77;;;;;;;22.04;41.05;99366.75;5134951;27;20027;-50
2021/10/27 12:48:17;;;;;;;20.88;11.75;;;;;;;22.34;40.54;99357.31;5099589;27;20024;-50
2021/10/27 12:50:52;;;;;;;23.02;10.70;;;;;;;22.78;39.61;99354.25;5117397;27;20035;-51
2021/10/27 12:53:28;;;;;;;;;;;;;;;23.28;39.65;99357.28;5135117;27;20027;-50
2021/10/27 12:56:08;;;;;;;16.27;10.98;;;;;;;23.33;38.58;99354.59;5116393;27;19960;-50
2021/10/27 12:58:43;;;;;;;22.40;11.50;;;;;;;23.12;38.85;99348.44;5134493;27;20055;-50
2021/10/27 13:01:51;;;;;;;19.60;11.45;;;;;;;23.02;39.26;99351.91;5134731;27;20034;-50
2021/10/27 13:04:26;;;;;;;13.27;10.48;;;;;;;22.68;39.43;99340.84;5134677;27;20511;-50
2021/10/27 13:09:59;;;;;;;18.77;11.27;;;;;;;22.42;39.58;99348.00;5119025;27;20087;-49
2021/10/27 13:30:36;;;;;;;18.92;11.38;;;;;;;21.76;40.65;99321.69;5134435;27;20494;-49
2021/10/27 13:33:07;;;;;;;14.48;11.02;;;;;;;21.28;41.54;99330.41;5133668;27;20023;-50
2021/10/27 13:35:34;;;;;;;15.68;11.45;;;;;;;21.04;41.94;99319.25;5134002;27;20031;-50
2021/10/27 13:38:02;;;;;;;13.10;10.63;;;;;;;20.93;42.30;99326.38;5115866;27;20029;-50
2021/10/27 13:40:28;;;;;;;14.82;11.00;;;;;;;20.83;42.33;99328.94;5115416;27;20027;-50
2021/10/27 13:43:14;;;;;;;14.35;11.90;;;;;;;20.59;42.72;99320.44;5134052;27;20034;-50
2021/10/27 14:07:00;;;;;;;14.38;10.68;;;;;;;17.46;49.42;99306.22;5133455;27;20115;-50
2021/10/27 14:09:37;;;;;;;19.70;10.55;;;;;;;17.39;49.98;99313.47;5133331;27;20476;-50
2021/10/27 14:14:40;;;;;;;16.50;10.73;;;;;;;17.66;50.29;99303.22;5133273;27;20027;-50
2021/10/27 14:17:31;;;;;;;16.33;10.02;;;;;;;17.91;50.44;99295.03;5114880;27;20110;-51
2021/10/27 15:19:49;;;;;;;12.52;7.72;;;;;;;15.53;56.13;99261.78;5132625;28;20119;-52
2021/10/27 15:30:30;;;;;;;11.63;7.45;;;;;;;16.70;54.02;99253.72;5116420;28;20038;-52
2021/10/27 15:41:16;;;;;;;15.20;7.38;;;;;;;16.90;52.89;99250.78;5132640;28;20042;-52
2021/10/27 15:52:07;;;;;;;14.13;7.28;;;;;;;16.45;53.91;99245.09;5089193;28;20027;-51
2021/10/27 15:54:34;;;;;;;9.55;6.97;;;;;;;16.70;53.65;99248.41;5073702;28;20032;-52
2021/10/27 15:57:00;;;;;;;15.02;6.85;;;;;;;16.87;53.26;99248.59;5092131;28;20505;-52
2021/10/27 15:59:25;;;;;;;16.73;7.32;;;;;;;16.90;53.40;99245.50;5092517;28;20532;-51
2021/10/27 16:01:51;;;;;;;9.95;7.03;;;;;;;16.92;53.37;99246.06;5075696;28;20032;-52
2021/10/27 16:04:17;;;;;;;11.68;7.15;;;;;;;16.81;53.93;99246.84;5092659;28;20036;-52
2021/10/27 16:07:03;;;;;;;11.90;7.28;;;;;;;16.84;53.89;99246.41;5092548;28;20039;-52
2021/10/27 16:09:38;;;;;;;12.00;6.55;;;;;;;16.66;53.90;99251.72;5092644;28;20040;-52
2021/10/27 16:12:04;;;;;;;11.18;6.88;;;;;;;16.56;54.47;99245.13;5092580;28;20051;-52